sensor_id;sensor_type;location;lat;lon;timestamp;P1;durP1;ratioP1;P2;durP2;ratioP2
2652;SDS011;1336;48.692;9.144;2023-03-14T06:00:42;1.40;;;0.80;;
2652;SDS011;1336;48.692;9.144;2023-03-14T06:01:34;3.35;;;1.05;;
2652;SDS011;1336;48.692;9.144;2023-03-14T06:02:25;2.33;;;1.05;;
2652;SDS011;1336;48.692;9.144;2023-03-14T06:03:16;1.92;;;0.90;;
2652;SDS011;1336;48.692;9.144;2023-03-14T06:04:07;3.30;;;0.90;;
2652;SDS011;1336;48.692;9.144;2023-03-14T06:04:59;1.42;;;1.00;;
2652;SDS011;1336;48.692;9.144;2023-03-14T06:05:50;2.93;;;1.00;;
2652;SDS011;1336;48.692;9.144;2023-03-14T06:06:42;3.90;;;0.90;;
2652;SDS011;1336;48.692;9.144;2023-03-14T06:07:32;2.37;;;0.90;;
2652;SDS011;1336;48.692;9.144;2023-03-14T06:08:24;5.00;;;0.90;;
2652;SDS011;1336;48.692;9.144;2023-03-14T06:09:15;2.20;;;0.90;;
2652;SDS011;1336;48.692;9.144;2023-03-14T06:10:10;1.70;;;0.80;;
2652;SDS011;1336;48.692;9.144;2023-03-14T06:11:02;2.15;;;1.30;;
2652;SDS011;1336;48.692;9.144;2023-03-14T06:11:54;4.15;;;0.82;;
2652;SDS011;1336;48.692;9.144;2023-03-14T06:12:45;5.43;;;1.50;;
2652;SDS011;1336;48.692;9.144;2023-03-14T06:13:36;1.65;;;0.80;;
2652;SDS011;1336;48.692;9.144;2023-03-14T06:14:27;1.00;;;0.70;;
2652;SDS011;1336;48.692;9.144;2023-03-14T06:15:19;2.50;;;0.85;;
2652;SDS011;1336;48.692;9.144;2023-03-14T06:16:11;4.50;;;1.08;;
2652;SDS011;1336;48.692;9.144;2023-03-14T06:17:04;3.17;;;1.00;;
2652;SDS011;1336;48.692;9.144;2023-03-14T06:17:55;1.93;;;0.80;;
2652;SDS011;1336;48.692;9.144;2023-03-14T06:18:46;2.70;;;0.90;;
2652;SDS011;1336;48.692;9.144;2023-03-14T06:19:38;3.50;;;1.25;;
2652;SDS011;1336;48.692;9.144;2023-03-14T06:20:30;3.15;;;1.10;;
2652;SDS011;1336;48.692;9.144;2023-03-14T06:21:23;3.53;;;1.92;;
2652;SDS011;1336;48.692;9.144;2023-03-14T06:22:14;2.30;;;0.98;;
2652;SDS011;1336;48.692;9.144;2023-03-14T06:23:05;3.30;;;1.40;;
2652;SDS011;1336;48.692;9.144;2023-03-14T06:23:57;2.67;;;1.10;;
2652;SDS011;1336;48.692;9.144;2023-03-14T06:24:48;1.80;;;1.13;;
2652;SDS011;1336;48.692;9.144;2023-03-14T06:25:40;2.47;;;1.00;;
2652;SDS011;1336;48.692;9.144;2023-03-14T06:26:30;1.30;;;0.90;;
2652;SDS011;1336;48.692;9.144;2023-03-14T06:27:22;2.40;;;0.90;;
2652;SDS011;1336;48.692;9.144;2023-03-14T06:28:13;2.37;;;1.07;;
2652;SDS011;1336;48.692;9.144;2023-03-14T06:29:05;3.70;;;1.20;;
2652;SDS011;1336;48.692;9.144;2023-03-14T06:29:56;2.33;;;1.00;;
2652;SDS011;1336;48.692;9.144;2023-03-14T06:30:47;3.15;;;1.00;;
2652;SDS011;1336;48.692;9.144;2023-03-14T06:31:39;1.93;;;0.83;;
2652;SDS011;1336;48.692;9.144;2023-03-14T06:32:31;3.60;;;1.02;;
2652;SDS011;1336;48.692;9.144;2023-03-14T06:33:22;3.67;;;1.07;;
2652;SDS011;1336;48.692;9.144;2023-03-14T06:34:13;1.48;;;0.90;;
2652;SDS011;1336;48.692;9.144;2023-03-14T06:35:04;2.40;;;1.37;;
2652;SDS011;1336;48.692;9.144;2023-03-14T06:35:56;1.75;;;1.20;;
2652;SDS011;1336;48.692;9.144;2023-03-14T06:36:48;3.45;;;1.50;;
2652;SDS011;1336;48.692;9.144;2023-03-14T06:37:40;1.45;;;1.00;;
2652;SDS011;1336;48.692;9.144;2023-03-14T06:38:31;2.85;;;0.80;;
2652;SDS011;1336;48.692;9.144;2023-03-14T06:39:23;2.03;;;1.00;;
2652;SDS011;1336;48.692;9.144;2023-03-14T06:40:13;2.40;;;1.07;;
2652;SDS011;1336;48.692;9.144;2023-03-14T06:41:07;1.13;;;0.90;;
2652;SDS011;1336;48.692;9.144;2023-03-14T06:41:58;1.63;;;0.93;;
2652;SDS011;1336;48.692;9.144;2023-03-14T06:42:50;1.95;;;0.85;;
2652;SDS011;1336;48.692;9.144;2023-03-14T06:43:41;2.10;;;0.80;;
2652;SDS011;1336;48.692;9.144;2023-03-14T06:44:32;0.95;;;0.70;;
2652;SDS011;1336;48.692;9.144;2023-03-14T06:45:23;2.53;;;0.80;;
2652;SDS011;1336;48.692;9.144;2023-03-14T06:46:15;3.13;;;1.00;;
2652;SDS011;1336;48.692;9.144;2023-03-14T06:47:07;1.48;;;0.90;;
2652;SDS011;1336;48.692;9.144;2023-03-14T06:47:59;2.70;;;1.27;;
2652;SDS011;1336;48.692;9.144;2023-03-14T06:48:50;2.00;;;1.37;;
2652;SDS011;1336;48.692;9.144;2023-03-14T06:49:42;2.05;;;0.90;;
2652;SDS011;1336;48.692;9.144;2023-03-14T06:50:33;2.77;;;0.93;;
2652;SDS011;1336;48.692;9.144;2023-03-14T06:51:24;1.75;;;0.60;;
2652;SDS011;1336;48.692;9.144;2023-03-14T06:52:15;3.83;;;0.90;;
2652;SDS011;1336;48.692;9.144;2023-03-14T06:53:07;1.73;;;0.75;;
2652;SDS011;1336;48.692;9.144;2023-03-14T06:53:58;2.70;;;0.80;;
2652;SDS011;1336;48.692;9.144;2023-03-14T06:54:50;1.55;;;0.85;;
2652;SDS011;1336;48.692;9.144;2023-03-14T06:55:41;3.88;;;1.13;;
2652;SDS011;1336;48.692;9.144;2023-03-14T06:56:34;2.03;;;0.93;;
2652;SDS011;1336;48.692;9.144;2023-03-14T06:57:25;2.45;;;1.00;;
2652;SDS011;1336;48.692;9.144;2023-03-14T06:58:17;1.05;;;0.70;;
2652;SDS011;1336;48.692;9.144;2023-03-14T06:59:08;2.17;;;1.02;;
2652;SDS011;1336;48.692;9.144;2023-03-14T07:00:00;2.72;;;0.70;;
2652;SDS011;1336;48.692;9.144;2023-03-14T07:00:52;1.88;;;0.80;;
2652;SDS011;1336;48.692;9.144;2023-03-14T07:01:48;2.10;;;0.80;;
2652;SDS011;1336;48.692;9.144;2023-03-14T07:02:42;1.05;;;0.60;;
2652;SDS011;1336;48.692;9.144;2023-03-14T07:03:34;1.63;;;0.70;;
2652;SDS011;1336;48.692;9.144;2023-03-14T07:04:24;2.10;;;0.80;;
2652;SDS011;1336;48.692;9.144;2023-03-14T07:05:16;2.15;;;0.90;;
2652;SDS011;1336;48.692;9.144;2023-03-14T07:06:07;3.05;;;0.73;;
2652;SDS011;1336;48.692;9.144;2023-03-14T07:06:59;1.00;;;0.75;;
2652;SDS011;1336;48.692;9.144;2023-03-14T07:07:50;1.90;;;0.80;;
2652;SDS011;1336;48.692;9.144;2023-03-14T07:08:42;2.28;;;0.93;;
2652;SDS011;1336;48.692;9.144;2023-03-14T07:09:32;1.87;;;0.90;;
2652;SDS011;1336;48.692;9.144;2023-03-14T07:10:25;2.30;;;0.80;;
2652;SDS011;1336;48.692;9.144;2023-03-14T07:11:15;1.30;;;0.80;;
2652;SDS011;1336;48.692;9.144;2023-03-14T07:12:07;1.92;;;0.90;;
2652;SDS011;1336;48.692;9.144;2023-03-14T07:12:58;1.73;;;0.90;;
2652;SDS011;1336;48.692;9.144;2023-03-14T07:13:50;1.50;;;0.70;;
2652;SDS011;1336;48.692;9.144;2023-03-14T07:14:40;2.87;;;0.70;;
2652;SDS011;1336;48.692;9.144;2023-03-14T07:15:32;2.45;;;0.75;;
2652;SDS011;1336;48.692;9.144;2023-03-14T07:16:23;3.00;;;1.00;;
2652;SDS011;1336;48.692;9.144;2023-03-14T07:17:18;1.45;;;0.90;;
2652;SDS011;1336;48.692;9.144;2023-03-14T07:18:11;1.38;;;0.70;;
2652;SDS011;1336;48.692;9.144;2023-03-14T07:19:02;0.80;;;0.70;;
2652;SDS011;1336;48.692;9.144;2023-03-14T07:19:54;1.80;;;0.90;;
2652;SDS011;1336;48.692;9.144;2023-03-14T07:20:45;2.13;;;0.90;;
2652;SDS011;1336;48.692;9.144;2023-03-14T07:21:36;1.55;;;0.70;;
2652;SDS011;1336;48.692;9.144;2023-03-14T07:22:27;2.00;;;0.70;;
2652;SDS011;1336;48.692;9.144;2023-03-14T07:23:19;1.55;;;0.80;;
2652;SDS011;1336;48.692;9.144;2023-03-14T07:24:10;2.17;;;1.00;;
2652;SDS011;1336;48.692;9.144;2023-03-14T07:25:03;2.65;;;0.80;;
2652;SDS011;1336;48.692;9.144;2023-03-14T07:25:54;1.88;;;0.70;;
2652;SDS011;1336;48.692;9.144;2023-03-14T07:26:46;2.53;;;0.95;;
2652;SDS011;1336;48.692;9.144;2023-03-14T07:27:36;2.07;;;0.80;;
2652;SDS011;1336;48.692;9.144;2023-03-14T07:28:28;1.70;;;0.70;;
2652;SDS011;1336;48.692;9.144;2023-03-14T07:29:19;2.10;;;0.70;;
2652;SDS011;1336;48.692;9.144;2023-03-14T07:30:11;1.90;;;0.75;;
2652;SDS011;1336;48.692;9.144;2023-03-14T07:31:02;1.85;;;0.80;;
2652;SDS011;1336;48.692;9.144;2023-03-14T07:31:55;1.52;;;0.63;;
2652;SDS011;1336;48.692;9.144;2023-03-14T07:32:45;1.10;;;0.60;;
2652;SDS011;1336;48.692;9.144;2023-03-14T07:33:38;2.10;;;0.80;;
2652;SDS011;1336;48.692;9.144;2023-03-14T07:34:29;1.83;;;0.70;;
2652;SDS011;1336;48.692;9.144;2023-03-14T07:35:21;1.10;;;0.60;;
2652;SDS011;1336;48.692;9.144;2023-03-14T07:36:11;1.30;;;0.70;;
2652;SDS011;1336;48.692;9.144;2023-03-14T07:37:03;1.35;;;0.60;;
2652;SDS011;1336;48.692;9.144;2023-03-14T07:37:54;1.00;;;0.63;;
2652;SDS011;1336;48.692;9.144;2023-03-14T07:38:46;1.45;;;0.70;;
2652;SDS011;1336;48.692;9.144;2023-03-14T07:39:37;1.10;;;0.60;;
2652;SDS011;1336;48.692;9.144;2023-03-14T07:40:29;0.80;;;0.70;;
2652;SDS011;1336;48.692;9.144;2023-03-14T07:41:20;2.57;;;1.00;;
2652;SDS011;1336;48.692;9.144;2023-03-14T07:42:12;2.35;;;0.85;;
2652;SDS011;1336;48.692;9.144;2023-03-14T07:43:03;1.70;;;0.80;;
2652;SDS011;1336;48.692;9.144;2023-03-14T07:43:55;1.55;;;0.82;;
2652;SDS011;1336;48.692;9.144;2023-03-14T07:44:46;3.27;;;0.87;;
2652;SDS011;1336;48.692;9.144;2023-03-14T07:45:37;1.58;;;0.60;;
2652;SDS011;1336;48.692;9.144;2023-03-14T07:46:28;2.27;;;0.70;;
2652;SDS011;1336;48.692;9.144;2023-03-14T07:47:20;1.10;;;0.68;;
2652;SDS011;1336;48.692;9.144;2023-03-14T07:48:11;1.80;;;0.70;;
2652;SDS011;1336;48.692;9.144;2023-03-14T07:49:04;1.15;;;0.70;;
2652;SDS011;1336;48.692;9.144;2023-03-14T07:49:54;1.77;;;0.70;;
2652;SDS011;1336;48.692;9.144;2023-03-14T07:50:47;2.30;;;0.77;;
2652;SDS011;1336;48.692;9.144;2023-03-14T07:51:39;2.33;;;1.00;;
2652;SDS011;1336;48.692;9.144;2023-03-14T07:52:30;3.90;;;0.93;;
2652;SDS011;1336;48.692;9.144;2023-03-14T07:53:21;1.10;;;0.70;;
2652;SDS011;1336;48.692;9.144;2023-03-14T07:54:14;1.10;;;0.70;;
2652;SDS011;1336;48.692;9.144;2023-03-14T07:55:05;3.53;;;1.13;;
2652;SDS011;1336;48.692;9.144;2023-03-14T07:55:57;1.40;;;0.70;;
2652;SDS011;1336;48.692;9.144;2023-03-14T07:56:48;1.73;;;0.80;;
2652;SDS011;1336;48.692;9.144;2023-03-14T07:57:40;2.97;;;1.00;;
2652;SDS011;1336;48.692;9.144;2023-03-14T07:58:30;1.10;;;0.70;;
2652;SDS011;1336;48.692;9.144;2023-03-14T07:59:22;2.28;;;0.82;;
2652;SDS011;1336;48.692;9.144;2023-03-14T08:00:13;0.90;;;0.53;;
2652;SDS011;1336;48.692;9.144;2023-03-14T08:01:05;2.30;;;0.70;;
2652;SDS011;1336;48.692;9.144;2023-03-14T08:01:56;1.88;;;0.60;;
2652;SDS011;1336;48.692;9.144;2023-03-14T08:02:48;2.67;;;0.70;;
2652;SDS011;1336;48.692;9.144;2023-03-14T08:03:39;1.33;;;0.77;;
2652;SDS011;1336;48.692;9.144;2023-03-14T08:04:32;2.42;;;0.70;;
2652;SDS011;1336;48.692;9.144;2023-03-14T08:05:23;1.63;;;0.90;;
2652;SDS011;1336;48.692;9.144;2023-03-14T08:06:14;0.82;;;0.50;;
2652;SDS011;1336;48.692;9.144;2023-03-14T08:07:05;1.57;;;0.70;;
2652;SDS011;1336;48.692;9.144;2023-03-14T08:07:57;2.60;;;0.88;;
2652;SDS011;1336;48.692;9.144;2023-03-14T08:08:48;2.03;;;0.87;;
2652;SDS011;1336;48.692;9.144;2023-03-14T08:09:39;1.40;;;0.70;;
2652;SDS011;1336;48.692;9.144;2023-03-14T08:10:30;1.57;;;0.70;;
2652;SDS011;1336;48.692;9.144;2023-03-14T08:11:22;1.23;;;0.50;;
2652;SDS011;1336;48.692;9.144;2023-03-14T08:12:13;1.43;;;0.70;;
2652;SDS011;1336;48.692;9.144;2023-03-14T08:13:06;1.77;;;0.70;;
2652;SDS011;1336;48.692;9.144;2023-03-14T08:13:56;1.47;;;0.60;;
2652;SDS011;1336;48.692;9.144;2023-03-14T08:14:48;1.45;;;0.80;;
2652;SDS011;1336;48.692;9.144;2023-03-14T08:15:39;1.10;;;0.70;;
2652;SDS011;1336;48.692;9.144;2023-03-14T08:16:30;1.48;;;0.60;;
2652;SDS011;1336;48.692;9.144;2023-03-14T08:17:21;1.77;;;0.70;;
2652;SDS011;1336;48.692;9.144;2023-03-14T08:18:13;1.23;;;0.73;;
2652;SDS011;1336;48.692;9.144;2023-03-14T08:19:03;2.63;;;0.73;;
2652;SDS011;1336;48.692;9.144;2023-03-14T08:19:56;2.92;;;1.15;;
2652;SDS011;1336;48.692;9.144;2023-03-14T08:20:47;1.80;;;0.60;;
2652;SDS011;1336;48.692;9.144;2023-03-14T08:21:39;1.23;;;0.60;;
2652;SDS011;1336;48.692;9.144;2023-03-14T08:22:29;1.53;;;0.80;;
2652;SDS011;1336;48.692;9.144;2023-03-14T08:23:21;1.65;;;0.70;;
2652;SDS011;1336;48.692;9.144;2023-03-14T08:24:12;1.80;;;0.70;;
2652;SDS011;1336;48.692;9.144;2023-03-14T08:25:04;0.90;;;0.68;;
2652;SDS011;1336;48.692;9.144;2023-03-14T08:25:55;1.55;;;0.77;;
2652;SDS011;1336;48.692;9.144;2023-03-14T08:26:47;2.45;;;0.90;;
2652;SDS011;1336;48.692;9.144;2023-03-14T08:27:38;1.57;;;0.80;;
2652;SDS011;1336;48.692;9.144;2023-03-14T08:28:30;2.03;;;0.80;;
2652;SDS011;1336;48.692;9.144;2023-03-14T08:29:23;2.72;;;0.82;;
2652;SDS011;1336;48.692;9.144;2023-03-14T08:30:15;1.95;;;0.80;;
2652;SDS011;1336;48.692;9.144;2023-03-14T08:31:07;1.27;;;0.60;;
2652;SDS011;1336;48.692;9.144;2023-03-14T08:31:59;1.38;;;0.70;;
2652;SDS011;1336;48.692;9.144;2023-03-14T08:32:49;2.03;;;0.80;;
2652;SDS011;1336;48.692;9.144;2023-03-14T08:33:41;2.55;;;0.70;;
2652;SDS011;1336;48.692;9.144;2023-03-14T08:34:32;2.97;;;0.90;;
2652;SDS011;1336;48.692;9.144;2023-03-14T08:35:26;1.15;;;0.75;;
2652;SDS011;1336;48.692;9.144;2023-03-14T08:36:17;1.38;;;0.60;;
2652;SDS011;1336;48.692;9.144;2023-03-14T08:37:09;0.98;;;0.60;;
2652;SDS011;1336;48.692;9.144;2023-03-14T08:38:00;1.80;;;0.70;;
2652;SDS011;1336;48.692;9.144;2023-03-14T08:38:52;2.08;;;0.80;;
2652;SDS011;1336;48.692;9.144;2023-03-14T08:39:43;1.63;;;0.87;;
2652;SDS011;1336;48.692;9.144;2023-03-14T08:40:34;1.25;;;0.80;;
2652;SDS011;1336;48.692;9.144;2023-03-14T08:41:25;1.63;;;0.60;;
2652;SDS011;1336;48.692;9.144;2023-03-14T08:42:17;2.25;;;0.63;;
2652;SDS011;1336;48.692;9.144;2023-03-14T08:43:08;1.40;;;0.60;;
2652;SDS011;1336;48.692;9.144;2023-03-14T08:43:59;1.10;;;0.80;;
2652;SDS011;1336;48.692;9.144;2023-03-14T08:44:50;1.30;;;0.70;;
2652;SDS011;1336;48.692;9.144;2023-03-14T08:45:42;1.65;;;0.93;;
2652;SDS011;1336;48.692;9.144;2023-03-14T08:46:33;1.47;;;0.70;;
2652;SDS011;1336;48.692;9.144;2023-03-14T08:47:25;1.60;;;0.65;;
2652;SDS011;1336;48.692;9.144;2023-03-14T08:48:16;1.10;;;0.50;;
2652;SDS011;1336;48.692;9.144;2023-03-14T08:49:09;1.23;;;0.70;;
2652;SDS011;1336;48.692;9.144;2023-03-14T08:50:00;1.07;;;0.50;;
2652;SDS011;1336;48.692;9.144;2023-03-14T08:50:53;0.80;;;0.50;;
2652;SDS011;1336;48.692;9.144;2023-03-14T08:51:43;1.63;;;0.63;;
2652;SDS011;1336;48.692;9.144;2023-03-14T08:52:35;1.13;;;0.60;;
2652;SDS011;1336;48.692;9.144;2023-03-14T08:53:27;1.20;;;0.70;;
2652;SDS011;1336;48.692;9.144;2023-03-14T08:54:19;0.95;;;0.60;;
2652;SDS011;1336;48.692;9.144;2023-03-14T08:55:10;1.07;;;0.50;;
2652;SDS011;1336;48.692;9.144;2023-03-14T08:56:02;1.17;;;0.50;;
2652;SDS011;1336;48.692;9.144;2023-03-14T08:56:53;1.58;;;0.60;;
2652;SDS011;1336;48.692;9.144;2023-03-14T08:57:45;0.80;;;0.60;;
2652;SDS011;1336;48.692;9.144;2023-03-14T08:58:36;2.13;;;0.60;;
2652;SDS011;1336;48.692;9.144;2023-03-14T08:59:28;3.55;;;0.80;;
2652;SDS011;1336;48.692;9.144;2023-03-14T09:00:20;1.20;;;0.60;;
2652;SDS011;1336;48.692;9.144;2023-03-14T09:01:11;1.20;;;0.63;;
2652;SDS011;1336;48.692;9.144;2023-03-14T09:02:02;1.33;;;0.60;;
2652;SDS011;1336;48.692;9.144;2023-03-14T09:02:53;1.00;;;0.90;;
2652;SDS011;1336;48.692;9.144;2023-03-14T09:03:45;1.98;;;0.70;;
2652;SDS011;1336;48.692;9.144;2023-03-14T09:04:37;1.42;;;0.50;;
2652;SDS011;1336;48.692;9.144;2023-03-14T09:05:28;1.10;;;0.65;;
2652;SDS011;1336;48.692;9.144;2023-03-14T09:06:24;1.00;;;0.60;;
2652;SDS011;1336;48.692;9.144;2023-03-14T09:07:15;0.95;;;0.50;;
2652;SDS011;1336;48.692;9.144;2023-03-14T09:08:07;1.50;;;0.50;;
2652;SDS011;1336;48.692;9.144;2023-03-14T09:08:57;1.00;;;0.43;;
2652;SDS011;1336;48.692;9.144;2023-03-14T09:09:49;0.90;;;0.60;;
2652;SDS011;1336;48.692;9.144;2023-03-14T09:10:40;0.97;;;0.53;;
2652;SDS011;1336;48.692;9.144;2023-03-14T09:11:32;1.25;;;0.70;;
2652;SDS011;1336;48.692;9.144;2023-03-14T09:12:23;1.00;;;0.50;;
2652;SDS011;1336;48.692;9.144;2023-03-14T09:13:15;0.90;;;0.60;;
2652;SDS011;1336;48.692;9.144;2023-03-14T09:14:06;1.63;;;0.50;;
2652;SDS011;1336;48.692;9.144;2023-03-14T09:14:58;2.17;;;0.60;;
2652;SDS011;1336;48.692;9.144;2023-03-14T09:15:50;3.33;;;0.90;;
2652;SDS011;1336;48.692;9.144;2023-03-14T09:16:42;0.70;;;0.50;;
2652;SDS011;1336;48.692;9.144;2023-03-14T09:17:32;0.90;;;0.60;;
2652;SDS011;1336;48.692;9.144;2023-03-14T09:18:24;1.90;;;0.70;;
2652;SDS011;1336;48.692;9.144;2023-03-14T09:19:15;1.00;;;0.60;;
2652;SDS011;1336;48.692;9.144;2023-03-14T09:20:07;2.10;;;0.50;;
2652;SDS011;1336;48.692;9.144;2023-03-14T09:20:59;1.55;;;0.73;;
2652;SDS011;1336;48.692;9.144;2023-03-14T09:21:52;1.10;;;0.50;;
2652;SDS011;1336;48.692;9.144;2023-03-14T09:22:42;1.33;;;0.50;;
2652;SDS011;1336;48.692;9.144;2023-03-14T09:23:34;0.70;;;0.40;;
2652;SDS011;1336;48.692;9.144;2023-03-14T09:24:25;1.67;;;0.60;;
2652;SDS011;1336;48.692;9.144;2023-03-14T09:25:17;1.17;;;0.50;;
2652;SDS011;1336;48.692;9.144;2023-03-14T09:26:07;1.73;;;0.60;;
2652;SDS011;1336;48.692;9.144;2023-03-14T09:26:59;1.05;;;0.50;;
2652;SDS011;1336;48.692;9.144;2023-03-14T09:27:50;1.07;;;0.50;;
2652;SDS011;1336;48.692;9.144;2023-03-14T09:28:41;1.08;;;0.57;;
2652;SDS011;1336;48.692;9.144;2023-03-14T09:29:32;1.70;;;0.50;;
2652;SDS011;1336;48.692;9.144;2023-03-14T09:30:24;0.80;;;0.50;;
2652;SDS011;1336;48.692;9.144;2023-03-14T09:31:15;1.27;;;0.60;;
2652;SDS011;1336;48.692;9.144;2023-03-14T09:32:06;1.40;;;0.60;;
2652;SDS011;1336;48.692;9.144;2023-03-14T09:32:57;1.00;;;0.60;;
2652;SDS011;1336;48.692;9.144;2023-03-14T09:33:49;1.83;;;0.57;;
2652;SDS011;1336;48.692;9.144;2023-03-14T09:34:40;1.53;;;0.70;;
2652;SDS011;1336;48.692;9.144;2023-03-14T09:35:33;0.90;;;0.60;;
2652;SDS011;1336;48.692;9.144;2023-03-14T09:36:24;1.92;;;0.82;;
2652;SDS011;1336;48.692;9.144;2023-03-14T09:37:17;1.98;;;0.60;;
2652;SDS011;1336;48.692;9.144;2023-03-14T09:38:07;2.17;;;0.52;;
2652;SDS011;1336;48.692;9.144;2023-03-14T09:38:59;0.90;;;0.52;;
2652;SDS011;1336;48.692;9.144;2023-03-14T09:39:50;1.10;;;0.60;;
2652;SDS011;1336;48.692;9.144;2023-03-14T09:40:42;0.80;;;0.40;;
2652;SDS011;1336;48.692;9.144;2023-03-14T09:41:33;1.43;;;0.70;;
2652;SDS011;1336;48.692;9.144;2023-03-14T09:42:27;0.95;;;0.55;;
2652;SDS011;1336;48.692;9.144;2023-03-14T09:43:18;0.70;;;0.60;;
2652;SDS011;1336;48.692;9.144;2023-03-14T09:44:11;1.08;;;0.50;;
2652;SDS011;1336;48.692;9.144;2023-03-14T09:45:06;0.90;;;0.40;;
2652;SDS011;1336;48.692;9.144;2023-03-14T09:46:03;2.20;;;0.60;;
2652;SDS011;1336;48.692;9.144;2023-03-14T09:46:56;2.45;;;0.60;;
2652;SDS011;1336;48.692;9.144;2023-03-14T09:47:52;1.45;;;0.60;;
2652;SDS011;1336;48.692;9.144;2023-03-14T09:48:46;1.35;;;0.50;;
2652;SDS011;1336;48.692;9.144;2023-03-14T09:49:37;0.70;;;0.40;;
2652;SDS011;1336;48.692;9.144;2023-03-14T09:50:32;1.08;;;0.60;;
2652;SDS011;1336;48.692;9.144;2023-03-14T09:51:28;0.90;;;0.47;;
2652;SDS011;1336;48.692;9.144;2023-03-14T09:52:23;1.00;;;0.50;;
2652;SDS011;1336;48.692;9.144;2023-03-14T09:53:19;1.42;;;0.50;;
2652;SDS011;1336;48.692;9.144;2023-03-14T09:54:18;0.80;;;0.60;;
2652;SDS011;1336;48.692;9.144;2023-03-14T09:55:19;0.70;;;0.50;;
2652;SDS011;1336;48.692;9.144;2023-03-14T09:56:13;0.70;;;0.50;;
2652;SDS011;1336;48.692;9.144;2023-03-14T09:57:08;4.15;;;0.75;;
2652;SDS011;1336;48.692;9.144;2023-03-14T09:58:04;0.80;;;0.60;;
2652;SDS011;1336;48.692;9.144;2023-03-14T09:59:03;0.93;;;0.50;;
2652;SDS011;1336;48.692;9.144;2023-03-14T09:59:56;1.00;;;0.50;;
2652;SDS011;1336;48.692;9.144;2023-03-14T10:00:55;1.60;;;0.70;;
2652;SDS011;1336;48.692;9.144;2023-03-14T10:01:47;1.13;;;0.60;;
2652;SDS011;1336;48.692;9.144;2023-03-14T10:02:38;1.65;;;0.60;;
2652;SDS011;1336;48.692;9.144;2023-03-14T10:03:32;0.93;;;0.50;;
2652;SDS011;1336;48.692;9.144;2023-03-14T10:04:24;0.80;;;0.50;;
2652;SDS011;1336;48.692;9.144;2023-03-14T10:05:16;3.58;;;0.80;;
2652;SDS011;1336;48.692;9.144;2023-03-14T10:06:10;1.23;;;0.50;;
2652;SDS011;1336;48.692;9.144;2023-03-14T10:07:02;0.80;;;0.50;;
2652;SDS011;1336;48.692;9.144;2023-03-14T10:07:55;0.70;;;0.47;;
2652;SDS011;1336;48.692;9.144;2023-03-14T10:08:46;1.23;;;0.50;;
2652;SDS011;1336;48.692;9.144;2023-03-14T10:09:37;1.10;;;0.50;;
2652;SDS011;1336;48.692;9.144;2023-03-14T10:10:28;1.40;;;0.40;;
2652;SDS011;1336;48.692;9.144;2023-03-14T10:11:20;4.90;;;0.70;;
2652;SDS011;1336;48.692;9.144;2023-03-14T10:12:11;0.70;;;0.50;;
2652;SDS011;1336;48.692;9.144;2023-03-14T10:13:10;1.05;;;0.50;;
2652;SDS011;1336;48.692;9.144;2023-03-14T10:14:07;1.13;;;0.50;;
2652;SDS011;1336;48.692;9.144;2023-03-14T10:15:02;1.60;;;0.60;;
2652;SDS011;1336;48.692;9.144;2023-03-14T10:15:55;1.30;;;0.50;;
2652;SDS011;1336;48.692;9.144;2023-03-14T10:16:50;1.10;;;0.75;;
2652;SDS011;1336;48.692;9.144;2023-03-14T10:17:42;0.77;;;0.50;;
2652;SDS011;1336;48.692;9.144;2023-03-14T10:18:37;1.05;;;0.65;;
2652;SDS011;1336;48.692;9.144;2023-03-14T10:19:28;0.90;;;0.50;;
2652;SDS011;1336;48.692;9.144;2023-03-14T10:20:27;1.42;;;0.68;;
2652;SDS011;1336;48.692;9.144;2023-03-14T10:21:25;0.90;;;0.50;;
2652;SDS011;1336;48.692;9.144;2023-03-14T10:22:19;0.70;;;0.50;;
2652;SDS011;1336;48.692;9.144;2023-03-14T10:23:26;0.90;;;0.50;;
2652;SDS011;1336;48.692;9.144;2023-03-14T10:24:20;0.93;;;0.50;;
2652;SDS011;1336;48.692;9.144;2023-03-14T10:25:23;0.90;;;0.43;;
2652;SDS011;1336;48.692;9.144;2023-03-14T10:26:18;1.00;;;0.55;;
2652;SDS011;1336;48.692;9.144;2023-03-14T10:27:17;1.88;;;0.98;;
2652;SDS011;1336;48.692;9.144;2023-03-14T10:28:11;0.70;;;0.40;;
2652;SDS011;1336;48.692;9.144;2023-03-14T10:29:14;0.70;;;0.40;;
2652;SDS011;1336;48.692;9.144;2023-03-14T10:30:07;2.00;;;0.63;;
2652;SDS011;1336;48.692;9.144;2023-03-14T10:31:17;0.90;;;0.40;;
2652;SDS011;1336;48.692;9.144;2023-03-14T10:32:10;1.00;;;0.57;;
2652;SDS011;1336;48.692;9.144;2023-03-14T10:33:11;0.88;;;0.47;;
2652;SDS011;1336;48.692;9.144;2023-03-14T10:34:12;0.90;;;0.50;;
2652;SDS011;1336;48.692;9.144;2023-03-14T10:36:17;1.00;;;0.50;;
2652;SDS011;1336;48.692;9.144;2023-03-14T10:37:16;0.70;;;0.50;;
2652;SDS011;1336;48.692;9.144;2023-03-14T10:38:12;0.80;;;0.50;;
2652;SDS011;1336;48.692;9.144;2023-03-14T10:39:22;0.80;;;0.60;;
2652;SDS011;1336;48.692;9.144;2023-03-14T10:40:18;0.85;;;0.40;;
2652;SDS011;1336;48.692;9.144;2023-03-14T10:41:15;0.90;;;0.50;;
2652;SDS011;1336;48.692;9.144;2023-03-14T10:42:13;0.88;;;0.40;;
2652;SDS011;1336;48.692;9.144;2023-03-14T10:43:13;1.08;;;0.50;;
2652;SDS011;1336;48.692;9.144;2023-03-14T10:44:05;0.95;;;0.50;;
2652;SDS011;1336;48.692;9.144;2023-03-14T10:45:02;0.90;;;0.60;;
2652;SDS011;1336;48.692;9.144;2023-03-14T10:45:56;0.85;;;0.52;;
2652;SDS011;1336;48.692;9.144;2023-03-14T10:46:54;3.20;;;0.50;;
2652;SDS011;1336;48.692;9.144;2023-03-14T10:47:48;1.05;;;0.60;;
2652;SDS011;1336;48.692;9.144;2023-03-14T10:48:41;0.73;;;0.60;;
2652;SDS011;1336;48.692;9.144;2023-03-14T10:49:32;1.95;;;0.60;;
2652;SDS011;1336;48.692;9.144;2023-03-14T10:50:26;0.90;;;0.60;;
2652;SDS011;1336;48.692;9.144;2023-03-14T10:51:19;0.98;;;0.40;;
2652;SDS011;1336;48.692;9.144;2023-03-14T10:52:18;0.70;;;0.50;;
2652;SDS011;1336;48.692;9.144;2023-03-14T10:53:12;0.90;;;0.50;;
2652;SDS011;1336;48.692;9.144;2023-03-14T10:54:12;0.88;;;0.50;;
2652;SDS011;1336;48.692;9.144;2023-03-14T10:55:10;0.65;;;0.40;;
2652;SDS011;1336;48.692;9.144;2023-03-14T10:56:03;1.05;;;0.50;;
2652;SDS011;1336;48.692;9.144;2023-03-14T10:56:58;1.75;;;0.52;;
2652;SDS011;1336;48.692;9.144;2023-03-14T10:57:51;0.68;;;0.47;;
2652;SDS011;1336;48.692;9.144;2023-03-14T10:58:43;0.70;;;0.40;;
2652;SDS011;1336;48.692;9.144;2023-03-14T10:59:36;1.23;;;0.50;;
2652;SDS011;1336;48.692;9.144;2023-03-14T11:00:29;1.23;;;0.40;;
2652;SDS011;1336;48.692;9.144;2023-03-14T11:01:28;0.70;;;0.40;;
2652;SDS011;1336;48.692;9.144;2023-03-14T11:02:34;1.00;;;0.50;;
2652;SDS011;1336;48.692;9.144;2023-03-14T11:03:38;0.90;;;0.50;;
2652;SDS011;1336;48.692;9.144;2023-03-14T11:04:43;0.70;;;0.50;;
2652;SDS011;1336;48.692;9.144;2023-03-14T11:05:45;0.93;;;0.40;;
2652;SDS011;1336;48.692;9.144;2023-03-14T11:06:41;0.70;;;0.40;;
2652;SDS011;1336;48.692;9.144;2023-03-14T11:07:37;1.20;;;0.73;;
2652;SDS011;1336;48.692;9.144;2023-03-14T11:08:31;1.35;;;0.40;;
2652;SDS011;1336;48.692;9.144;2023-03-14T11:09:29;0.80;;;0.50;;
2652;SDS011;1336;48.692;9.144;2023-03-14T11:10:29;1.23;;;0.50;;
2652;SDS011;1336;48.692;9.144;2023-03-14T11:11:23;0.70;;;0.40;;
2652;SDS011;1336;48.692;9.144;2023-03-14T11:12:23;1.50;;;0.50;;
2652;SDS011;1336;48.692;9.144;2023-03-14T11:13:28;0.90;;;0.52;;
2652;SDS011;1336;48.692;9.144;2023-03-14T11:14:27;1.10;;;0.50;;
2652;SDS011;1336;48.692;9.144;2023-03-14T11:15:25;0.80;;;0.50;;
2652;SDS011;1336;48.692;9.144;2023-03-14T11:16:22;0.90;;;0.50;;
2652;SDS011;1336;48.692;9.144;2023-03-14T11:17:19;0.70;;;0.50;;
2652;SDS011;1336;48.692;9.144;2023-03-14T11:18:21;0.82;;;0.40;;
2652;SDS011;1336;48.692;9.144;2023-03-14T11:19:50;0.88;;;0.60;;
2652;SDS011;1336;48.692;9.144;2023-03-14T11:20:52;1.30;;;0.65;;
2652;SDS011;1336;48.692;9.144;2023-03-14T11:21:50;0.90;;;0.60;;
2652;SDS011;1336;48.692;9.144;2023-03-14T11:22:47;1.15;;;0.60;;
2652;SDS011;1336;48.692;9.144;2023-03-14T11:23:47;0.70;;;0.50;;
2652;SDS011;1336;48.692;9.144;2023-03-14T11:24:56;0.90;;;0.70;;
2652;SDS011;1336;48.692;9.144;2023-03-14T11:26:08;1.65;;;0.70;;
2652;SDS011;1336;48.692;9.144;2023-03-14T11:27:11;1.45;;;0.70;;
2652;SDS011;1336;48.692;9.144;2023-03-14T11:28:09;1.35;;;0.70;;
2652;SDS011;1336;48.692;9.144;2023-03-14T11:29:12;1.10;;;0.60;;
2652;SDS011;1336;48.692;9.144;2023-03-14T11:30:18;1.60;;;0.43;;
2652;SDS011;1336;48.692;9.144;2023-03-14T11:31:14;0.98;;;0.60;;
2652;SDS011;1336;48.692;9.144;2023-03-14T11:32:12;0.80;;;0.50;;